Time;durP1;ratioP1;P1;durP2;ratioP2;P2;SDS_P1;SDS_P2;PMS_P1;PMS_P2;Temp;Humidity;BMP_temperature;BMP_pressure;BME280_temperature;BME280_humidity;BME280_pressure;Samples;Min_cycle;Max_cycle;Signal;HPM_P1;HPM_P2
2022/01/22 00:00:07;;;;;;;4.43;1.75;;;;;;;-5.96;60.13;94169.66;5023193;28;20300;-77
2022/01/22 00:02:33;;;;;;;5.10;1.98;;;;;;;-5.94;59.73;94152.88;5023105;28;20032;-81
2022/01/22 00:04:58;;;;;;;6.82;2.08;;;;;;;-5.91;58.62;94147.25;5023125;28;20029;-81
2022/01/22 00:07:23;;;;;;;4.30;1.55;;;;;;;-5.90;59.46;94154.03;5023237;28;20092;-81
2022/01/22 00:09:59;;;;;;;5.43;1.83;;;;;;;-5.83;59.20;94148.03;5023108;28;20045;-81
2022/01/22 00:12:43;;;;;;;7.38;1.60;;;;;;;-5.96;58.75;94139.31;5022790;28;20228;-80
2022/01/22 00:15:11;;;;;;;7.78;1.30;;;;;;;-5.92;58.64;94148.25;5022798;28;20101;-81
2022/01/22 00:17:37;;;;;;;4.20;1.77;;;;;;;-5.96;59.21;94144.50;5022643;28;20093;-81
2022/01/22 00:20:05;;;;;;;5.30;1.70;;;;;;;-5.85;58.80;94143.84;5022532;28;20029;-80
2022/01/22 00:22:34;;;;;;;3.88;1.83;;;;;;;-5.86;58.81;94144.06;5023127;28;20097;-81
2022/01/22 00:25:01;;;;;;;3.83;1.42;;;;;;;-5.92;59.24;94139.66;5022585;28;20343;-82
2022/01/22 00:27:28;;;;;;;5.75;1.70;;;;;;;-5.89;59.59;94136.66;5022609;28;20037;-82
2022/01/22 00:29:54;;;;;;;2.38;1.52;;;;;;;-5.92;58.66;94139.66;5022722;28;20022;-81
2022/01/22 00:32:20;;;;;;;4.20;1.48;;;;;;;-5.92;59.64;94145.66;5022937;28;20049;-81
2022/01/22 00:34:45;;;;;;;4.35;1.50;;;;;;;-5.91;59.94;94147.25;5022764;28;20018;-81
2022/01/22 00:37:11;;;;;;;4.50;1.75;;;;;;;-5.97;59.69;94136.91;5022826;28;20018;-81
2022/01/22 00:39:37;;;;;;;4.68;1.95;;;;;;;-5.92;59.22;94137.06;5021565;28;20018;-81
2022/01/22 00:42:09;;;;;;;5.13;1.73;;;;;;;-5.89;58.73;94144.47;5022666;28;20335;-83
2022/01/22 00:44:34;;;;;;;7.38;1.65;;;;;;;-5.86;58.82;94144.06;5022607;28;20029;-83
2022/01/22 00:47:00;;;;;;;1.52;1.10;;;;;;;-5.94;57.39;94139.06;5022690;28;20030;-83
2022/01/22 00:49:26;;;;;;;5.70;2.03;;;;;;;-5.85;58.01;94140.44;5022883;28;20308;-83
2022/01/22 00:51:52;;;;;;;0.75;0.63;;;;;;;-5.80;57.23;94140.66;5038112;28;20034;-84
2022/01/22 00:54:17;;;;;;;5.68;2.08;;;;;;;-5.82;58.28;94144.44;5022709;28;20021;-83
2022/01/22 00:56:45;;;;;;;5.45;1.70;;;;;;;-5.82;58.32;94134.03;5022706;28;20093;-83
2022/01/22 00:59:11;;;;;;;3.15;1.60;;;;;;;-5.84;58.21;94139.47;5022549;28;20068;-83
2022/01/22 01:01:36;;;;;;;3.97;1.67;;;;;;;-5.80;58.00;94142.44;5021317;28;20018;-83
2022/01/22 01:04:03;;;;;;;3.05;1.40;;;;;;;-5.81;58.50;94138.25;5022519;28;20030;-83
2022/01/22 01:06:29;;;;;;;3.50;1.60;;;;;;;-5.82;58.75;94136.63;5022506;28;20320;-83
2022/01/22 01:08:55;;;;;;;4.90;1.70;;;;;;;-5.83;58.89;94128.06;5025842;28;20021;-83
2022/01/22 01:11:23;;;;;;;2.20;1.30;;;;;;;-5.88;58.66;94136.47;5026543;28;20048;-83
2022/01/22 01:13:55;;;;;;;4.05;1.70;;;;;;;-5.94;58.94;94132.09;5026275;28;20045;-83
2022/01/22 01:16:42;;;;;;;;;;;;;;;-6.00;59.65;94130.34;5026345;28;20032;-84
2022/01/22 01:33:05;;;;;;;3.35;1.35;;;;;;;-6.07;58.79;94106.19;5026750;28;20052;-83
2022/01/22 01:35:33;;;;;;;4.75;1.30;;;;;;;-6.07;58.70;94099.19;5041324;28;20021;-83
2022/01/22 01:38:01;;;;;;;5.75;1.85;;;;;;;-6.00;58.34;94104.41;5024827;28;20022;-83
2022/01/22 01:40:28;;;;;;;2.83;1.60;;;;;;;-5.96;58.64;94102.97;5025951;28;20026;-82
2022/01/22 01:45:26;;;;;;;5.18;1.55;;;;;;;-5.87;58.26;94099.09;5025963;28;20144;-82
2022/01/22 01:47:56;;;;;;;8.88;1.45;;;;;;;-5.89;58.66;94103.72;5025832;28;20025;-84
2022/01/22 01:50:21;;;;;;;5.03;1.42;;;;;;;-5.86;58.62;94094.75;5025874;28;20098;-83
2022/01/22 01:52:53;;;;;;;4.72;1.48;;;;;;;-5.87;58.73;94098.31;5025745;28;20037;-83
2022/01/22 01:55:32;;;;;;;2.42;1.20;;;;;;;-6.00;58.07;94101.78;5025835;28;20225;-83
2022/01/22 01:57:57;;;;;;;6.35;1.83;;;;;;;-5.84;58.57;94084.94;5025547;28;20251;-82
2022/01/22 02:00:26;;;;;;;3.35;1.30;;;;;;;-5.84;58.45;94084.94;5025833;28;20071;-83
2022/01/22 02:02:53;;;;;;;10.10;2.25;;;;;;;-5.91;57.88;94087.53;5025518;28;20029;-82
2022/01/22 02:05:21;;;;;;;6.18;1.42;;;;;;;-5.84;57.86;94090.13;5025601;28;20026;-82
2022/01/22 02:07:47;;;;;;;6.78;1.83;;;;;;;-5.83;57.85;94102.09;5025535;28;20092;-81
2022/01/22 02:10:20;;;;;;;1.48;0.93;;;;;;;-5.82;57.82;94074.34;5025361;28;20327;-82
2022/01/22 02:23:36;;;;;;;4.68;1.40;;;;;;;-5.70;57.13;94086.47;5025098;28;20253;-81
2022/01/22 02:26:04;;;;;;;4.13;1.40;;;;;;;-5.70;57.01;94089.06;5040025;28;20033;-81
2022/01/22 02:28:29;;;;;;;3.22;1.30;;;;;;;-5.76;57.53;94087.31;5024811;28;20037;-81
2022/01/22 02:31:04;;;;;;;4.85;1.30;;;;;;;-5.67;57.77;94074.88;5025044;28;20236;-80
2022/01/22 02:33:43;;;;;;;6.25;1.33;;;;;;;-5.70;56.79;94064.88;5024985;28;20036;-80
2022/01/22 02:36:19;;;;;;;2.80;2.08;;;;;;;-5.79;56.41;94050.56;5024746;28;20080;-81
2022/01/22 02:38:57;;;;;;;5.38;1.42;;;;;;;-5.89;56.90;94069.19;5024706;28;20072;-80
2022/01/22 02:41:25;;;;;;;5.35;1.88;;;;;;;-5.94;56.52;94076.75;5024914;28;20025;-81
2022/01/22 02:43:53;;;;;;;4.40;1.73;;;;;;;-5.92;56.87;94064.38;5024538;28;20324;-81
2022/01/22 02:46:22;;;;;;;2.22;1.10;;;;;;;-6.02;57.63;94062.28;5024506;28;20026;-80
2022/01/22 02:48:47;;;;;;;9.13;1.83;;;;;;;-6.03;57.30;94059.88;5026988;28;20335;-79
2022/01/22 02:51:13;;;;;;;4.05;1.33;;;;;;;-6.11;57.44;94058.31;5039959;28;20026;-79
2022/01/22 02:53:39;;;;;;;5.15;1.33;;;;;;;-6.09;57.11;94066.69;5024605;28;20025;-79
2022/01/22 02:56:04;;;;;;;2.38;1.02;;;;;;;-6.13;56.52;94065.50;5039733;28;20025;-79
2022/01/22 02:58:31;;;;;;;10.20;1.80;;;;;;;-6.01;57.00;94069.03;5039553;28;20038;-78
2022/01/22 03:00:56;;;;;;;3.47;1.27;;;;;;;-5.98;56.48;94083.41;5024370;28;20049;-78
2022/01/22 03:03:22;;;;;;;5.07;1.38;;;;;;;-5.97;57.16;94059.06;5024435;28;20652;-79
2022/01/22 03:05:47;;;;;;;8.13;1.27;;;;;;;-5.92;56.52;94072.97;5024316;28;20096;-79
2022/01/22 03:08:14;;;;;;;5.63;1.65;;;;;;;-5.98;56.56;94078.22;5024277;28;20037;-79
2022/01/22 03:10:43;;;;;;;8.75;1.98;;;;;;;-5.99;56.31;94059.25;5024379;28;20057;-79
2022/01/22 03:18:47;;;;;;;4.55;1.58;;;;;;;-5.98;56.16;94041.88;5024020;28;20258;-80
2022/01/22 03:29:17;;;;;;;3.88;1.00;;;;;;;-6.09;56.10;94005.19;5023834;28;20029;-81
2022/01/22 03:31:44;;;;;;;7.20;1.55;;;;;;;-6.02;57.26;94007.78;5022094;28;20025;-81
2022/01/22 03:34:10;;;;;;;4.07;1.38;;;;;;;-6.09;56.65;94020.75;5023748;28;20208;-81
2022/01/22 03:36:36;;;;;;;4.18;1.65;;;;;;;-6.09;56.95;94015.56;5023774;28;20026;-81
2022/01/22 03:39:06;;;;;;;8.65;1.40;;;;;;;-6.16;56.44;94024.41;5023524;28;20064;-82
2022/01/22 03:41:31;;;;;;;5.32;1.40;;;;;;;-6.14;56.22;94017.22;5023562;28;20018;-82
2022/01/22 03:43:57;;;;;;;2.10;0.93;;;;;;;-6.16;55.32;94008.84;5022574;28;20152;-82
2022/01/22 03:46:23;;;;;;;2.50;1.65;;;;;;;-6.12;55.16;94007.41;5023555;28;20034;-83
2022/01/22 03:48:49;;;;;;;6.72;2.03;;;;;;;-6.05;55.68;94002.97;5023614;28;20309;-83
2022/01/22 03:51:14;;;;;;;3.53;1.20;;;;;;;-6.16;55.28;94003.66;5023446;28;20372;-82
2022/01/22 03:53:40;;;;;;;2.17;1.27;;;;;;;-6.09;55.27;94014.78;5023271;28;20018;-82
2022/01/22 03:56:07;;;;;;;3.30;1.33;;;;;;;-6.03;55.23;94015.75;5023444;28;20080;-82
2022/01/22 03:58:37;;;;;;;0.65;0.55;;;;;;;-6.05;53.80;94002.97;5023341;28;20093;-83
2022/01/22 04:04:26;;;;;;;2.80;1.50;;;;;;;-6.03;55.54;94003.56;5023240;28;20256;-82
2022/01/22 04:09:27;;;;;;;5.43;1.38;;;;;;;-5.83;55.44;94007.84;5023350;28;20071;-82
2022/01/22 04:11:55;;;;;;;2.65;1.35;;;;;;;-5.89;56.27;94012.84;5023301;28;20271;-82
2022/01/22 04:14:25;;;;;;;5.53;1.35;;;;;;;-5.80;55.64;94023.81;5023074;28;20041;-82
2022/01/22 04:17:07;;;;;;;3.15;1.40;;;;;;;-5.81;55.87;94003.25;5038319;28;20290;-81
2022/01/22 04:25:03;;;;;;;3.08;1.17;;;;;;;-5.78;54.95;94002.81;5022909;28;20275;-81
2022/01/22 04:27:29;;;;;;;2.63;1.30;;;;;;;-5.77;55.28;93997.41;5023159;28;20029;-81
2022/01/22 04:29:59;;;;;;;5.13;1.65;;;;;;;-5.75;55.45;93999.81;5022795;28;20087;-80
2022/01/22 04:32:27;;;;;;;5.22;1.55;;;;;;;-5.69;55.81;93989.38;5023031;28;20052;-80
2022/01/22 04:34:53;;;;;;;7.18;1.70;;;;;;;-5.62;56.12;93978.94;5022777;28;20026;-81
2022/01/22 04:37:19;;;;;;;4.90;2.38;;;;;;;-5.72;55.98;93986.41;5022811;28;20045;-82
2022/01/22 04:39:46;;;;;;;4.85;0.98;;;;;;;-5.73;55.58;93966.66;5022850;28;20049;-82
2022/01/22 04:42:12;;;;;;;3.22;0.90;;;;;;;-5.72;55.39;93969.03;5022057;28;20060;-83
2022/01/22 04:44:45;;;;;;;5.03;1.10;;;;;;;-5.67;55.61;93981.38;5022622;28;20026;-83
2022/01/22 04:55:21;;;;;;;8.00;2.00;;;;;;;-5.51;56.29;93969.72;5040488;28;20033;-80
2022/01/22 04:57:46;;;;;;;2.22;1.30;;;;;;;-5.53;56.16;93972.50;5026264;28;20056;-80
2022/01/22 05:00:16;;;;;;;5.35;1.73;;;;;;;-5.45;56.83;93980.03;5022566;28;20034;-79
2022/01/22 05:02:42;;;;;;;4.68;1.65;;;;;;;-5.38;55.91;93967.00;5037760;28;20036;-79
2022/01/22 05:05:08;;;;;;;2.10;1.10;;;;;;;-5.42;53.66;93957.25;5022437;28;20030;-78
2022/01/22 05:07:33;;;;;;;5.95;1.42;;;;;;;-5.33;53.85;93945.56;5037597;28;20049;-78
2022/01/22 05:09:59;;;;;;;2.65;0.98;;;;;;;-5.30;52.43;93950.34;5022827;28;20089;-78
2022/01/22 05:12:24;;;;;;;4.55;1.13;;;;;;;-5.29;51.68;93963.13;5022281;28;20220;-79
2022/01/22 05:14:50;;;;;;;4.07;1.15;;;;;;;-5.38;51.93;93968.81;5022084;28;20045;-79
2022/01/22 05:17:18;;;;;;;4.50;1.73;;;;;;;-5.40;53.26;93986.41;5022555;28;20101;-79
2022/01/22 05:22:31;;;;;;;3.75;1.05;;;;;;;-5.65;54.75;93977.56;5022314;28;20028;-81
2022/01/22 05:25:01;;;;;;;3.65;1.48;;;;;;;-5.62;56.24;93947.78;5022441;28;20042;-80
2022/01/22 05:38:08;;;;;;;4.90;1.38;;;;;;;-5.70;57.39;93971.41;5021296;28;20065;-80
2022/01/22 05:40:34;;;;;;;3.97;1.65;;;;;;;-5.70;57.02;93968.81;5022162;28;20026;-80
2022/01/22 05:43:00;;;;;;;6.55;1.75;;;;;;;-5.70;57.85;93961.84;5037371;28;20036;-80
2022/01/22 05:45:26;;;;;;;3.42;1.60;;;;;;;-5.81;58.58;93959.13;5022009;28;20316;-80
2022/01/22 05:47:51;;;;;;;4.40;1.80;;;;;;;-5.81;59.12;93962.50;5022002;28;20033;-80
2022/01/22 05:50:31;;;;;;;4.35;1.70;;;;;;;-5.85;59.27;93964.72;5022260;28;20076;-81
2022/01/22 05:53:02;;;;;;;6.32;1.90;;;;;;;-5.92;59.93;93961.38;5021866;28;20123;-80
2022/01/22 06:00:52;;;;;;;6.80;1.40;;;;;;;-5.89;59.48;93962.75;5025511;28;20041;-80
2022/01/22 06:03:18;;;;;;;2.78;1.20;;;;;;;-5.88;58.42;93951.38;5024363;28;20101;-80
2022/01/22 06:05:44;;;;;;;1.92;1.33;;;;;;;-5.81;58.76;93953.91;5025382;28;20049;-80
2022/01/22 06:08:14;;;;;;;4.13;1.52;;;;;;;-5.83;57.40;93945.53;5025519;28;20026;-80
2022/01/22 06:10:40;;;;;;;4.07;1.52;;;;;;;-5.77;57.46;93945.50;5025392;28;20037;-80
2022/01/22 06:13:18;;;;;;;5.95;2.42;;;;;;;-5.70;56.44;93945.44;5025070;28;20045;-79
2022/01/22 06:15:44;;;;;;;3.05;1.17;;;;;;;-5.68;56.84;93948.63;5040550;28;20026;-79
2022/01/22 06:18:09;;;;;;;8.13;2.78;;;;;;;-5.55;57.96;93951.16;5025346;28;20048;-80
2022/01/22 06:20:35;;;;;;;3.08;1.52;;;;;;;-5.58;58.27;93969.72;5025254;28;20037;-81
2022/01/22 06:23:01;;;;;;;2.80;1.30;;;;;;;-5.80;57.84;93958.91;5025266;28;20076;-79
2022/01/22 06:25:27;;;;;;;9.50;1.48;;;;;;;-5.80;58.47;93955.50;5024911;28;20228;-80
2022/01/22 06:27:52;;;;;;;3.38;1.25;;;;;;;-5.91;58.41;93942.19;5025279;28;20026;-80
2022/01/22 06:30:19;;;;;;;3.47;1.50;;;;;;;-5.86;58.54;93951.97;5040442;28;20026;-80
2022/01/22 06:32:44;;;;;;;3.67;1.85;;;;;;;-5.87;58.70;93958.94;5024805;28;20065;-80
2022/01/22 06:35:10;;;;;;;2.67;1.23;;;;;;;-5.94;57.47;93972.94;5040200;28;20206;-82
2022/01/22 06:37:35;;;;;;;1.23;0.80;;;;;;;-6.02;56.78;93952.47;5024951;28;20111;-81
2022/01/22 06:42:35;;;;;;;2.78;1.08;;;;;;;-5.93;58.03;93951.97;5024966;28;20033;-81
2022/01/22 06:45:03;;;;;;;3.03;1.58;;;;;;;-5.96;57.89;93944.66;5024752;28;20098;-82
2022/01/22 06:47:30;;;;;;;3.63;1.35;;;;;;;-6.01;58.08;93944.47;5024816;28;20056;-81
2022/01/22 06:49:56;;;;;;;7.10;1.05;;;;;;;-5.99;58.10;93944.28;5039994;28;20205;-82
2022/01/22 06:52:21;;;;;;;3.17;1.33;;;;;;;-6.02;57.81;93945.50;5023268;28;20100;-82
2022/01/22 06:54:47;;;;;;;3.63;1.33;;;;;;;-5.96;57.69;93920.47;5024535;28;20014;-83
2022/01/22 06:57:13;;;;;;;3.13;1.50;;;;;;;-5.91;56.96;93924.00;5024456;28;20093;-83
2022/01/22 06:59:39;;;;;;;2.63;1.45;;;;;;;-5.83;57.66;93940.34;5024574;28;20025;-82
2022/01/22 07:02:05;;;;;;;3.63;1.65;;;;;;;-5.84;56.69;93939.56;5024241;28;20319;-83
2022/01/22 07:04:31;;;;;;;6.22;1.58;;;;;;;-5.80;56.89;93932.94;5024212;28;20216;-82
2022/01/22 07:06:57;;;;;;;3.22;0.80;;;;;;;-5.83;56.85;93942.94;5022320;28;20326;-82
2022/01/22 07:09:23;;;;;;;3.10;1.30;;;;;;;-5.82;56.23;93901.22;5024451;28;20044;-80
2022/01/22 07:11:49;;;;;;;3.17;1.08;;;;;;;-5.80;56.26;93919.16;5024292;28;20026;-79
2022/01/22 07:14:15;;;;;;;3.92;1.20;;;;;;;-5.67;56.32;93934.66;5023934;28;20049;-79
2022/01/22 07:16:40;;;;;;;4.60;1.20;;;;;;;-5.69;56.27;93936.66;5024132;28;20072;-78
2022/01/22 07:19:06;;;;;;;2.55;0.85;;;;;;;-5.66;55.61;93933.63;5024069;28;20018;-82
2022/01/22 07:21:32;;;;;;;3.13;1.60;;;;;;;-5.58;55.31;93922.97;5024363;28;20224;-82
2022/01/22 07:26:26;;;;;;;2.97;1.33;;;;;;;-5.37;55.36;93903.66;5024194;28;20026;-84
2022/01/22 07:28:52;;;;;;;5.05;1.73;;;;;;;-5.24;55.37;93908.72;5023960;28;20021;-84
2022/01/22 07:31:20;;;;;;;3.35;1.30;;;;;;;-5.07;56.08;93915.97;5023818;28;20040;-82
2022/01/22 07:33:46;;;;;;;10.32;2.20;;;;;;;-4.92;55.80;93919.03;5023677;28;20053;-82
2022/01/22 07:36:12;;;;;;;6.07;2.78;;;;;;;-4.83;55.57;93914.31;5023658;28;20308;-82
2022/01/22 07:38:39;;;;;;;7.63;3.65;;;;;;;-4.71;55.72;93912.59;5023740;28;20025;-81
2022/01/22 07:41:07;;;;;;;11.82;5.22;;;;;;;-4.56;56.04;93912.25;5023903;28;20030;-82
2022/01/22 07:43:32;;;;;;;8.68;2.63;;;;;;;-4.46;55.63;93906.50;5023840;28;20347;-81
2022/01/22 07:45:58;;;;;;;6.22;1.30;;;;;;;-4.58;53.89;93905.66;5023647;28;20026;-82
2022/01/22 07:48:23;;;;;;;5.30;2.45;;;;;;;-4.58;54.53;93908.25;5023561;28;20030;-85
2022/01/22 07:50:48;;;;;;;2.63;1.35;;;;;;;-4.59;55.27;93907.47;5023987;28;20025;-84
2022/01/22 07:53:14;;;;;;;6.68;3.45;;;;;;;-4.50;55.55;93905.34;5024217;28;20026;-87
2022/01/22 07:55:40;;;;;;;7.18;2.65;;;;;;;-4.56;54.22;93903.63;5024098;28;20022;-81
2022/01/22 07:58:06;;;;;;;6.10;1.67;;;;;;;-4.63;53.23;93894.09;5023563;28;20320;-78
2022/01/22 08:00:31;;;;;;;4.43;1.38;;;;;;;-4.68;53.27;93908.75;5023387;28;20036;-77
2022/01/22 08:02:57;;;;;;;3.40;1.20;;;;;;;-4.74;53.69;93912.22;5023275;28;20033;-78
2022/01/22 08:05:22;;;;;;;5.10;1.52;;;;;;;-4.75;53.84;93915.84;5023148;28;20033;-78
2022/01/22 08:07:48;;;;;;;4.40;1.67;;;;;;;-4.78;53.71;93906.69;5022011;28;20032;-75
2022/01/22 08:10:14;;;;;;;6.38;1.50;;;;;;;-4.78;55.27;93896.28;5023330;28;20029;-77
2022/01/22 08:12:42;;;;;;;6.45;1.67;;;;;;;-4.79;55.20;93899.09;5023237;28;20226;-79
2022/01/22 08:15:11;;;;;;;3.22;1.55;;;;;;;-4.77;55.16;93897.06;5022076;28;20056;-79
2022/01/22 08:17:37;;;;;;;4.80;1.58;;;;;;;-4.67;55.24;93898.13;5023237;28;20246;-82
2022/01/22 08:20:03;;;;;;;4.85;1.35;;;;;;;-4.74;53.75;93884.44;5038312;28;20022;-81
2022/01/22 08:22:28;;;;;;;3.30;1.20;;;;;;;-4.82;51.64;93897.72;5022990;28;20144;-82
2022/01/22 08:24:55;;;;;;;2.42;0.70;;;;;;;-4.84;52.29;93881.53;5022896;28;20327;-81
2022/01/22 08:29:52;;;;;;;9.27;1.33;;;;;;;-4.82;51.02;93874.31;5023345;28;20224;-84
2022/01/22 08:37:27;;;;;;;1.58;0.88;;;;;;;-4.71;50.87;93881.38;5023573;28;20025;-84
2022/01/22 08:39:53;;;;;;;4.38;1.77;;;;;;;-4.66;51.39;93876.34;5023516;28;20096;-85
2022/01/22 08:42:21;;;;;;;4.90;1.40;;;;;;;-4.66;51.35;93878.13;5023789;28;20037;-85
2022/01/22 08:44:47;;;;;;;9.45;1.40;;;;;;;-4.52;51.34;93879.56;5024267;28;20018;-85
2022/01/22 08:47:13;;;;;;;2.90;1.20;;;;;;;-4.49;51.82;93894.72;5039721;28;20324;-83
2022/01/22 08:49:39;;;;;;;6.28;1.63;;;;;;;-4.47;52.62;93886.72;5024224;28;20048;-90
2022/01/22 08:52:11;;;;;;;3.78;1.30;;;;;;;-4.53;52.63;93893.59;5024618;28;20018;-90
2022/01/22 08:54:37;;;;;;;2.30;1.25;;;;;;;-4.64;51.96;93879.50;5023846;28;20018;-85
2022/01/22 08:57:06;;;;;;;3.08;1.35;;;;;;;-4.75;53.30;93869.81;5022909;28;20022;-86
2022/01/22 08:59:31;;;;;;;2.38;1.08;;;;;;;-4.63;54.07;93875.88;5023847;28;20049;-85
2022/01/22 09:01:57;;;;;;;5.32;1.30;;;;;;;-4.61;52.34;93880.09;5023077;28;20021;-84
2022/01/22 09:04:23;;;;;;;3.85;1.60;;;;;;;-4.62;53.39;93884.47;5038339;28;20098;-85
2022/01/22 09:06:48;;;;;;;5.25;1.40;;;;;;;-4.45;53.89;93889.91;5039721;28;20045;-91
2022/01/22 09:09:14;;;;;;;4.93;1.88;;;;;;;-4.33;53.79;93895.94;5022612;28;20033;-85
2022/01/22 09:11:43;;;;;;;3.72;1.38;;;;;;;-4.34;53.55;93896.16;5038716;28;20022;-83
2022/01/22 09:14:11;;;;;;;4.00;1.00;;;;;;;-4.24;53.83;93875.59;5038452;28;20272;-87
2022/01/22 09:16:38;;;;;;;3.20;1.17;;;;;;;-4.14;54.09;93903.72;5023295;28;20018;-85
2022/01/22 09:19:08;;;;;;;5.30;1.58;;;;;;;-4.24;54.37;93886.81;5023373;28;20018;-85
2022/01/22 09:21:34;;;;;;;4.55;1.85;;;;;;;-4.34;54.93;93886.53;5038758;28;20092;-85
2022/01/22 09:24:00;;;;;;;2.28;1.05;;;;;;;-4.49;55.25;93905.13;5038015;28;20022;-85
2022/01/22 09:26:28;;;;;;;2.22;1.10;;;;;;;-4.51;53.70;93893.38;5023424;28;20064;-87
2022/01/22 09:28:56;;;;;;;4.35;1.60;;;;;;;-4.55;54.60;93889.63;5024741;28;20182;-87
2022/01/22 09:31:21;;;;;;;5.70;2.03;;;;;;;-4.61;54.44;93877.50;5027028;28;20034;-87
2022/01/22 09:33:47;;;;;;;2.65;1.42;;;;;;;-4.54;54.32;93875.59;5026861;28;20264;-88
2022/01/22 09:36:13;;;;;;;2.80;1.27;;;;;;;-4.61;52.36;93857.47;5042441;28;20026;-85
2022/01/22 09:38:38;;;;;;;3.50;1.33;;;;;;;-4.51;54.02;93870.75;5026459;28;20040;-85
2022/01/22 09:41:05;;;;;;;5.35;1.60;;;;;;;-4.44;52.57;93873.25;5026637;28;20029;-85
2022/01/22 09:43:31;;;;;;;1.88;1.25;;;;;;;-4.47;53.20;93876.31;5026256;28;20030;-85
2022/01/22 09:45:57;;;;;;;3.08;1.63;;;;;;;-4.49;53.51;93852.31;5026331;28;20178;-86
2022/01/22 09:48:28;;;;;;;2.78;1.15;;;;;;;-4.57;52.28;93829.22;5026671;28;20248;-86
2022/01/22 09:50:56;;;;;;;4.95;0.80;;;;;;;-4.84;51.07;93819.16;5026644;28;20040;-89
2022/01/22 09:53:22;;;;;;;3.55;1.20;;;;;;;-4.76;51.82;93826.66;5026519;28;20094;-86
2022/01/22 09:55:47;;;;;;;2.63;0.90;;;;;;;-4.69;50.70;93800.53;5026076;28;20022;-86
2022/01/22 09:58:13;;;;;;;2.75;1.13;;;;;;;-4.79;49.47;93800.28;5026130;28;20832;-87
2022/01/22 10:00:38;;;;;;;4.43;1.98;;;;;;;-4.73;50.34;93815.78;5041769;28;20036;-86
2022/01/22 10:03:16;;;;;;;2.72;1.02;;;;;;;-4.60;49.55;93821.84;5025469;28;20037;-87
2022/01/22 10:05:42;;;;;;;2.97;1.20;;;;;;;-4.53;49.81;93809.56;5026309;28;20036;-86
2022/01/22 10:08:31;;;;;;;2.42;1.05;;;;;;;-4.49;52.86;93808.09;5026380;28;20308;-86
2022/01/22 10:10:59;;;;;;;2.38;1.13;;;;;;;-4.40;49.28;93804.16;5026158;28;20025;-86
2022/01/22 10:13:44;;;;;;;2.40;1.35;;;;;;;-4.25;50.00;93824.59;5025922;28;20046;-87
2022/01/22 10:16:12;;;;;;;5.78;1.83;;;;;;;-4.11;49.01;93806.94;5026078;28;20030;-86
2022/01/22 10:18:37;;;;;;;5.38;2.40;;;;;;;-3.83;51.73;93804.53;5024795;28;20022;-86
2022/01/22 10:21:11;;;;;;;5.65;2.25;;;;;;;-3.59;52.30;93795.91;5025922;28;20071;-87
2022/01/22 10:23:39;;;;;;;4.43;1.20;;;;;;;-3.50;47.19;93791.94;5041668;28;20084;-86
2022/01/22 10:26:13;;;;;;;3.03;1.10;;;;;;;-3.49;45.85;93794.31;5041347;28;20102;-86
2022/01/22 10:28:49;;;;;;;2.30;0.93;;;;;;;-3.43;46.32;93788.19;5026016;28;20041;-86
2022/01/22 10:31:25;;;;;;;4.32;1.42;;;;;;;-3.35;48.21;93797.50;5024825;28;20100;-87
2022/01/22 10:34:05;;;;;;;0.98;0.70;;;;;;;-3.65;47.77;93792.41;5025821;28;20021;-86
2022/01/22 10:36:31;;;;;;;4.60;1.77;;;;;;;-3.99;50.39;93797.34;5025752;28;20316;-87
2022/01/22 10:38:57;;;;;;;4.93;1.67;;;;;;;-4.07;50.54;93802.88;5024540;28;20029;-86
2022/01/22 10:41:36;;;;;;;4.65;1.33;;;;;;;-3.98;51.10;93791.13;5024349;28;20256;-86
2022/01/22 10:44:03;;;;;;;4.40;1.88;;;;;;;-3.96;50.60;93778.69;5025555;28;20018;-87
2022/01/22 10:49:11;;;;;;;4.95;1.60;;;;;;;-3.79;50.10;93784.00;5025414;28;20022;-86
2022/01/22 10:51:49;;;;;;;5.78;1.70;;;;;;;-3.87;49.60;93774.75;5040885;28;20022;-86
2022/01/22 10:54:16;;;;;;;4.05;1.88;;;;;;;-3.81;51.51;93764.44;5025275;28;20060;-86
2022/01/22 10:56:41;;;;;;;4.15;1.70;;;;;;;-3.63;51.31;93766.91;5025285;28;20021;-87
2022/01/22 10:59:17;;;;;;;10.07;2.47;;;;;;;-3.57;50.21;93758.19;5025225;28;20029;-87
2022/01/22 11:01:51;;;;;;;3.78;1.63;;;;;;;-3.48;48.45;93766.44;5025129;28;20053;-83
2022/01/22 11:04:35;;;;;;;3.67;1.42;;;;;;;-3.35;48.70;93768.81;5025154;28;20018;-86
2022/01/22 11:07:06;;;;;;;5.35;1.60;;;;;;;-3.26;49.34;93772.69;5024932;28;20026;-85
2022/01/22 11:09:33;;;;;;;1.98;1.00;;;;;;;-3.29;47.69;93772.34;5025100;28;20026;-87
2022/01/22 11:12:03;;;;;;;4.82;1.67;;;;;;;-3.32;48.50;93768.34;5024919;28;20068;-86
2022/01/22 11:14:32;;;;;;;4.22;1.67;;;;;;;-3.23;49.32;93767.00;5024866;28;20049;-85
2022/01/22 11:16:57;;;;;;;5.95;2.33;;;;;;;-3.18;48.91;93760.28;5024774;28;20021;-84
2022/01/22 11:19:32;;;;;;;5.75;1.63;;;;;;;-3.07;48.14;93733.41;5023116;28;20033;-85
2022/01/22 11:22:03;;;;;;;4.38;1.60;;;;;;;-2.96;47.55;93752.66;5023558;28;20035;-81
2022/01/22 11:24:29;;;;;;;3.90;1.80;;;;;;;-3.00;47.42;93744.50;5023967;28;20061;-82
2022/01/22 11:26:58;;;;;;;4.07;2.03;;;;;;;-2.93;47.48;93741.75;5023910;28;20251;-81
2022/01/22 11:29:31;;;;;;;1.75;0.95;;;;;;;-2.80;47.72;93746.69;5039515;28;20324;-83
2022/01/22 11:32:00;;;;;;;7.20;2.05;;;;;;;-2.75;47.30;93744.16;5024083;28;20017;-81
2022/01/22 11:34:32;;;;;;;2.83;1.35;;;;;;;-2.80;47.48;93740.69;5039286;28;20018;-82
2022/01/22 11:37:06;;;;;;;4.55;1.17;;;;;;;-2.97;47.12;93745.84;5039100;28;20104;-82
2022/01/22 11:39:32;;;;;;;3.15;1.67;;;;;;;-3.05;48.39;93744.41;5024087;28;20269;-87
2022/01/22 11:41:58;;;;;;;2.10;1.45;;;;;;;-3.02;47.60;93729.06;5023785;28;20026;-79
2022/01/22 11:44:34;;;;;;;1.77;0.88;;;;;;;-3.32;47.87;93737.06;5023832;28;20220;-85
2022/01/22 11:47:12;;;;;;;2.53;1.05;;;;;;;-3.30;49.62;93731.63;5023801;28;20029;-75
2022/01/22 11:49:39;;;;;;;4.95;1.70;;;;;;;-3.10;50.44;93744.28;5023692;28;20047;-75
2022/01/22 11:52:07;;;;;;;3.38;1.48;;;;;;;-2.96;49.21;93740.41;5023367;28;20026;-76
2022/01/22 11:54:47;;;;;;;2.88;1.27;;;;;;;-3.04;50.24;93733.72;5023207;28;20029;-75
2022/01/22 11:57:16;;;;;;;5.82;1.35;;;;;;;-3.14;50.80;93741.34;5023713;28;20068;-76
2022/01/22 11:59:43;;;;;;;4.88;1.40;;;;;;;-3.16;52.30;93732.97;5023701;28;20025;-74
2022/01/22 12:02:14;;;;;;;3.40;1.40;;;;;;;-3.11;52.90;93733.09;5023338;28;20064;-76
2022/01/22 12:04:39;;;;;;;7.07;1.65;;;;;;;-3.20;52.61;93718.81;5023463;28;20107;-75
2022/01/22 12:07:05;;;;;;;3.60;1.35;;;;;;;-3.24;53.49;93731.53;5023533;28;20030;-76
2022/01/22 12:09:41;;;;;;;5.65;1.50;;;;;;;-3.23;53.02;93727.09;5023121;28;20092;-77
2022/01/22 12:15:22;;;;;;;6.13;1.70;;;;;;;-3.50;54.07;93737.22;5023356;28;20084;-76
2022/01/22 12:17:49;;;;;;;3.17;1.40;;;;;;;-3.74;55.90;93720.84;5023144;28;20029;-76
2022/01/22 12:20:39;;;;;;;2.35;1.13;;;;;;;-3.61;56.36;93727.63;5023253;28;20030;-76
2022/01/22 12:23:31;;;;;;;5.43;1.58;;;;;;;-3.74;58.17;93728.66;5023692;28;20049;-76
2022/01/22 12:25:59;;;;;;;5.10;1.63;;;;;;;-3.85;58.23;93719.81;5023056;28;20092;-76
2022/01/22 12:28:45;;;;;;;4.47;1.65;;;;;;;-3.86;59.57;93711.22;5023155;28;20255;-75
2022/01/22 12:31:15;;;;;;;2.40;1.45;;;;;;;-3.99;60.78;93723.66;5023023;28;20041;-76
2022/01/22 12:33:40;;;;;;;5.35;1.42;;;;;;;-3.97;61.77;93724.22;5021754;28;20346;-75
2022/01/22 12:36:17;;;;;;;4.32;1.65;;;;;;;-3.93;62.46;93727.97;5023055;28;20026;-76
2022/01/22 12:41:36;;;;;;;5.47;1.60;;;;;;;-3.85;62.35;93728.44;5022863;28;20029;-77
2022/01/22 12:46:49;;;;;;;4.35;1.73;;;;;;;-3.78;59.05;93712.69;5022746;28;20381;-76
2022/01/22 12:49:15;;;;;;;5.75;1.73;;;;;;;-3.61;60.17;93717.19;5021440;28;20220;-78
2022/01/22 12:51:41;;;;;;;4.60;1.70;;;;;;;-3.48;59.33;93715.16;5022581;28;20093;-78
2022/01/22 12:54:06;;;;;;;5.10;1.85;;;;;;;-3.44;60.02;93710.25;5022044;28;20022;-78
2022/01/22 12:59:07;;;;;;;5.38;2.25;;;;;;;-3.47;59.10;93703.69;5022173;28;20021;-79
2022/01/22 13:01:35;;;;;;;6.82;1.35;;;;;;;-3.48;57.04;93701.31;5022314;28;20089;-78
2022/01/22 13:04:04;;;;;;;2.40;1.58;;;;;;;-3.59;56.80;93687.28;5024366;28;20224;-78
2022/01/22 13:06:47;;;;;;;7.40;1.90;;;;;;;-3.56;56.38;93676.41;5026598;28;20228;-78
2022/01/22 13:09:14;;;;;;;4.10;1.52;;;;;;;-3.55;55.66;93667.56;5025194;28;20352;-77
2022/01/22 13:11:50;;;;;;;5.80;1.88;;;;;;;-3.54;56.27;93665.75;5024849;28;20059;-77
2022/01/22 13:14:27;;;;;;;5.43;2.13;;;;;;;-3.54;55.56;93666.56;5024779;28;20041;-78
2022/01/22 13:16:55;;;;;;;2.40;1.27;;;;;;;-3.48;55.00;93660.44;5041442;28;20212;-78
2022/01/22 13:19:21;;;;;;;5.25;1.98;;;;;;;-3.49;54.33;93660.66;5026012;28;20018;-77
2022/01/22 13:21:52;;;;;;;5.10;1.65;;;;;;;-3.44;54.63;93666.75;5026054;28;20064;-77
2022/01/22 13:24:25;;;;;;;1.95;1.08;;;;;;;-3.31;54.48;93670.13;5026202;28;20049;-75